Terminal Aerodrome Forecast
Issued by NWS

Home | Current Version | Previous Version | Text Only | Print | Product List | Glossary On
Versions: 1 2 3 4 5 6 7 8 9 10 11 12 13 14 15 16 17 18 19 20 21 22 23
045
FTUS43 KGRB 240520
TAFMTW
TAF
KMTW 240520Z 2406/2506 33005KT P6SM SCT006 OVC015
      TEMPO 2406/2409 4SM BR BKN006
     FM240900 32004KT 3SM BR OVC008
      TEMPO 2409/2413 3/4SM BR OVC004
     FM241400 32005KT 4SM BR BKN015
     FM241600 32005KT P6SM BKN025 PROB30 2502/2506 3SM -SN BKN015=

USA.gov is the U.S. government's official web portal to all federal, state and local government web resources and services.